sensor_id;sensor_type;location;lat;lon;timestamp;pressure;altitude;pressure_sealevel;temperature;humidity
46718;BME280;32448;44.960;-0.698;2024-02-26T00:00:09;99116.06;;;9.90;100.00
46718;BME280;32448;44.960;-0.698;2024-02-26T00:02:37;99122.16;;;9.92;100.00
46718;BME280;32448;44.960;-0.698;2024-02-26T00:05:08;99107.44;;;9.80;100.00
46718;BME280;32448;44.960;-0.698;2024-02-26T00:07:35;99113.41;;;9.97;100.00
46718;BME280;32448;44.960;-0.698;2024-02-26T00:10:02;99102.97;;;9.96;100.00
46718;BME280;32448;44.960;-0.698;2024-02-26T00:12:29;99102.13;;;9.92;100.00
46718;BME280;32448;44.960;-0.698;2024-02-26T00:14:56;99087.38;;;9.86;100.00
46718;BME280;32448;44.960;-0.698;2024-02-26T00:17:25;99099.53;;;9.94;100.00
46718;BME280;32448;44.960;-0.698;2024-02-26T00:19:51;99098.59;;;9.98;100.00
46718;BME280;32448;44.960;-0.698;2024-02-26T00:22:20;99106.44;;;9.96;100.00
46718;BME280;32448;44.960;-0.698;2024-02-26T00:24:48;99103.81;;;10.02;100.00
46718;BME280;32448;44.960;-0.698;2024-02-26T00:27:15;99102.91;;;10.05;100.00
46718;BME280;32448;44.960;-0.698;2024-02-26T00:29:42;99082.16;;;9.90;100.00
46718;BME280;32448;44.960;-0.698;2024-02-26T00:32:09;99087.28;;;10.02;100.00
46718;BME280;32448;44.960;-0.698;2024-02-26T00:34:36;99101.94;;;10.19;100.00
46718;BME280;32448;44.960;-0.698;2024-02-26T00:37:03;99086.31;;;10.13;100.00
46718;BME280;32448;44.960;-0.698;2024-02-26T00:39:29;99090.66;;;10.13;100.00
46718;BME280;32448;44.960;-0.698;2024-02-26T00:41:56;99089.81;;;10.09;100.00
46718;BME280;32448;44.960;-0.698;2024-02-26T00:44:23;99099.38;;;10.09;100.00
46718;BME280;32448;44.960;-0.698;2024-02-26T00:46:50;99066.38;;;10.03;100.00
46718;BME280;32448;44.960;-0.698;2024-02-26T00:49:17;99085.44;;;10.13;100.00
46718;BME280;32448;44.960;-0.698;2024-02-26T00:51:44;99081.13;;;10.09;100.00
46718;BME280;32448;44.960;-0.698;2024-02-26T00:54:11;99077.63;;;10.07;100.00
46718;BME280;32448;44.960;-0.698;2024-02-26T00:56:38;99081.13;;;10.07;100.00
46718;BME280;32448;44.960;-0.698;2024-02-26T00:59:05;99066.41;;;9.99;100.00
46718;BME280;32448;44.960;-0.698;2024-02-26T01:01:32;99063.78;;;10.02;100.00
46718;BME280;32448;44.960;-0.698;2024-02-26T01:03:59;99060.34;;;9.95;100.00
46718;BME280;32448;44.960;-0.698;2024-02-26T01:06:26;99049.03;;;9.96;100.00
46718;BME280;32448;44.960;-0.698;2024-02-26T01:08:53;99065.50;;;10.03;100.00
46718;BME280;32448;44.960;-0.698;2024-02-26T01:11:20;99059.47;;;9.95;100.00
46718;BME280;32448;44.960;-0.698;2024-02-26T01:13:47;99042.16;;;9.84;100.00
46718;BME280;32448;44.960;-0.698;2024-02-26T01:16:14;99063.81;;;9.97;100.00
46718;BME280;32448;44.960;-0.698;2024-02-26T01:18:41;99080.31;;;10.01;100.00
46718;BME280;32448;44.960;-0.698;2024-02-26T01:21:07;99087.28;;;9.99;100.00
46718;BME280;32448;44.960;-0.698;2024-02-26T01:23:35;99077.72;;;9.98;100.00
46718;BME280;32448;44.960;-0.698;2024-02-26T01:26:02;99097.66;;;10.06;100.00
46718;BME280;32448;44.960;-0.698;2024-02-26T01:28:31;99082.00;;;10.08;100.00
46718;BME280;32448;44.960;-0.698;2024-02-26T01:30:58;99088.03;;;10.19;100.00
46718;BME280;32448;44.960;-0.698;2024-02-26T01:33:26;99085.44;;;10.11;100.00
46718;BME280;32448;44.960;-0.698;2024-02-26T01:35:53;99073.34;;;10.04;100.00
46718;BME280;32448;44.960;-0.698;2024-02-26T01:38:20;99043.84;;;9.93;100.00
46718;BME280;32448;44.960;-0.698;2024-02-26T01:40:47;99072.50;;;9.99;100.00
46718;BME280;32448;44.960;-0.698;2024-02-26T01:43:13;99057.78;;;9.91;100.00
46718;BME280;32448;44.960;-0.698;2024-02-26T01:45:40;99069.09;;;9.91;100.00
46718;BME280;32448;44.960;-0.698;2024-02-26T01:48:07;99080.31;;;10.01;100.00
46718;BME280;32448;44.960;-0.698;2024-02-26T01:50:34;99084.66;;;10.00;100.00
46718;BME280;32448;44.960;-0.698;2024-02-26T01:53:03;99061.28;;;9.85;100.00
46718;BME280;32448;44.960;-0.698;2024-02-26T01:55:31;99042.19;;;9.81;100.00
46718;BME280;32448;44.960;-0.698;2024-02-26T01:57:58;99068.22;;;9.91;100.00
46718;BME280;32448;44.960;-0.698;2024-02-26T02:00:25;99088.09;;;10.05;100.00
46718;BME280;32448;44.960;-0.698;2024-02-26T02:02:53;99082.03;;;10.05;100.00
46718;BME280;32448;44.960;-0.698;2024-02-26T02:05:21;99069.00;;;10.03;100.00
46718;BME280;32448;44.960;-0.698;2024-02-26T02:07:49;99084.66;;;10.00;100.00
46718;BME280;32448;44.960;-0.698;2024-02-26T02:10:16;99063.88;;;9.90;100.00
46718;BME280;32448;44.960;-0.698;2024-02-26T02:12:45;99083.88;;;9.91;100.00
46718;BME280;32448;44.960;-0.698;2024-02-26T02:15:12;99087.38;;;9.88;100.00
46718;BME280;32448;44.960;-0.698;2024-02-26T02:17:39;99073.53;;;9.78;100.00
46718;BME280;32448;44.960;-0.698;2024-02-26T02:20:15;99063.88;;;9.88;100.00
46718;BME280;32448;44.960;-0.698;2024-02-26T02:22:43;99110.84;;;9.91;100.00
46718;BME280;32448;44.960;-0.698;2024-02-26T02:25:10;99094.34;;;9.84;100.00
46718;BME280;32448;44.960;-0.698;2024-02-26T02:27:36;99103.00;;;9.93;100.00
46718;BME280;32448;44.960;-0.698;2024-02-26T02:30:04;99100.41;;;9.93;100.00
46718;BME280;32448;44.960;-0.698;2024-02-26T02:32:32;99092.59;;;9.90;100.00
46718;BME280;32448;44.960;-0.698;2024-02-26T02:34:59;99073.50;;;9.81;100.00
46718;BME280;32448;44.960;-0.698;2024-02-26T02:37:26;99070.94;;;9.75;100.00
46718;BME280;32448;44.960;-0.698;2024-02-26T02:39:53;99061.50;;;9.61;100.00
46718;BME280;32448;44.960;-0.698;2024-02-26T02:42:21;99066.63;;;9.70;100.00
46718;BME280;32448;44.960;-0.698;2024-02-26T02:44:48;99064.91;;;9.70;100.00
46718;BME280;32448;44.960;-0.698;2024-02-26T02:47:15;99059.69;;;9.66;100.00
46718;BME280;32448;44.960;-0.698;2024-02-26T02:49:42;99047.63;;;9.51;100.00
46718;BME280;32448;44.960;-0.698;2024-02-26T02:52:09;99057.22;;;9.49;100.00
46718;BME280;32448;44.960;-0.698;2024-02-26T02:54:36;99076.34;;;9.45;100.00
46718;BME280;32448;44.960;-0.698;2024-02-26T02:57:04;99089.31;;;9.56;100.00
46718;BME280;32448;44.960;-0.698;2024-02-26T02:59:31;99052.09;;;9.35;100.00
46718;BME280;32448;44.960;-0.698;2024-02-26T03:01:58;99070.19;;;9.58;100.00
46718;BME280;32448;44.960;-0.698;2024-02-26T03:04:25;99024.19;;;9.48;100.00
46718;BME280;32448;44.960;-0.698;2024-02-26T03:06:52;99065.75;;;9.71;100.00
46718;BME280;32448;44.960;-0.698;2024-02-26T03:09:19;99060.50;;;9.72;100.00
46718;BME280;32448;44.960;-0.698;2024-02-26T03:11:46;99058.84;;;9.65;100.00
46718;BME280;32448;44.960;-0.698;2024-02-26T03:14:13;99047.53;;;9.63;100.00
46718;BME280;32448;44.960;-0.698;2024-02-26T03:16:40;99055.28;;;9.74;100.00
46718;BME280;32448;44.960;-0.698;2024-02-26T03:19:08;99052.75;;;9.63;100.00
46718;BME280;32448;44.960;-0.698;2024-02-26T03:21:37;99051.94;;;9.58;100.00
46718;BME280;32448;44.960;-0.698;2024-02-26T03:24:04;99032.09;;;9.34;100.00
46718;BME280;32448;44.960;-0.698;2024-02-26T03:26:31;99063.25;;;9.54;100.00
46718;BME280;32448;44.960;-0.698;2024-02-26T03:28:58;99057.16;;;9.57;100.00
46718;BME280;32448;44.960;-0.698;2024-02-26T03:31:25;99047.59;;;9.57;100.00
46718;BME280;32448;44.960;-0.698;2024-02-26T03:33:52;99058.09;;;9.49;100.00
46718;BME280;32448;44.960;-0.698;2024-02-26T03:36:19;99047.69;;;9.40;100.00
46718;BME280;32448;44.960;-0.698;2024-02-26T03:38:46;99037.25;;;9.39;100.00
46718;BME280;32448;44.960;-0.698;2024-02-26T03:41:13;99032.91;;;9.39;100.00
46718;BME280;32448;44.960;-0.698;2024-02-26T03:43:40;99038.97;;;9.44;100.00
46718;BME280;32448;44.960;-0.698;2024-02-26T03:46:07;99020.81;;;9.32;100.00
46718;BME280;32448;44.960;-0.698;2024-02-26T03:48:35;99011.22;;;9.36;100.00
46718;BME280;32448;44.960;-0.698;2024-02-26T03:51:02;99038.16;;;9.36;100.00
46718;BME280;32448;44.960;-0.698;2024-02-26T03:53:29;99019.06;;;9.31;100.00
46718;BME280;32448;44.960;-0.698;2024-02-26T03:55:56;99009.63;;;9.17;100.00
46718;BME280;32448;44.960;-0.698;2024-02-26T03:58:23;99028.59;;;9.38;100.00
46718;BME280;32448;44.960;-0.698;2024-02-26T04:00:50;99013.06;;;9.20;100.00
46718;BME280;32448;44.960;-0.698;2024-02-26T04:03:16;99039.09;;;9.28;100.00
46718;BME280;32448;44.960;-0.698;2024-02-26T04:05:43;99042.59;;;9.22;100.00
46718;BME280;32448;44.960;-0.698;2024-02-26T04:08:10;99043.41;;;9.29;100.00
46718;BME280;32448;44.960;-0.698;2024-02-26T04:10:37;99039.97;;;9.24;100.00
46718;BME280;32448;44.960;-0.698;2024-02-26T04:13:07;99046.00;;;9.32;100.00
46718;BME280;32448;44.960;-0.698;2024-02-26T04:15:34;99028.69;;;9.17;100.00
46718;BME280;32448;44.960;-0.698;2024-02-26T04:18:01;99054.69;;;9.32;100.00
46718;BME280;32448;44.960;-0.698;2024-02-26T04:20:29;99059.06;;;9.29;100.00
46718;BME280;32448;44.960;-0.698;2024-02-26T04:22:56;99062.50;;;9.34;100.00
46718;BME280;32448;44.960;-0.698;2024-02-26T04:25:23;99040.84;;;9.24;100.00
46718;BME280;32448;44.960;-0.698;2024-02-26T04:27:50;99070.28;;;9.40;100.00
46718;BME280;32448;44.960;-0.698;2024-02-26T04:30:17;99063.38;;;9.37;100.00
46718;BME280;32448;44.960;-0.698;2024-02-26T04:32:44;99055.56;;;9.36;100.00
46718;BME280;32448;44.960;-0.698;2024-02-26T04:35:11;99055.56;;;9.34;100.00
46718;BME280;32448;44.960;-0.698;2024-02-26T04:37:38;99057.31;;;9.32;100.00
46718;BME280;32448;44.960;-0.698;2024-02-26T04:40:05;99056.41;;;9.38;100.00
46718;BME280;32448;44.960;-0.698;2024-02-26T04:42:32;99043.34;;;9.41;100.00
46718;BME280;32448;44.960;-0.698;2024-02-26T04:44:59;99052.88;;;9.48;100.00
46718;BME280;32448;44.960;-0.698;2024-02-26T04:47:26;99051.16;;;9.41;100.00
46718;BME280;32448;44.960;-0.698;2024-02-26T04:49:53;99054.59;;;9.49;100.00
46718;BME280;32448;44.960;-0.698;2024-02-26T04:52:21;99060.72;;;9.39;100.00
46718;BME280;32448;44.960;-0.698;2024-02-26T04:54:47;99078.97;;;9.46;100.00
46718;BME280;32448;44.960;-0.698;2024-02-26T04:57:14;99070.25;;;9.46;100.00
46718;BME280;32448;44.960;-0.698;2024-02-26T04:59:41;99089.44;;;9.36;100.00
46718;BME280;32448;44.960;-0.698;2024-02-26T05:02:09;99090.31;;;9.38;100.00
46718;BME280;32448;44.960;-0.698;2024-02-26T05:04:37;99087.66;;;9.48;100.00
46718;BME280;32448;44.960;-0.698;2024-02-26T05:07:04;99079.75;;;9.56;100.00
46718;BME280;32448;44.960;-0.698;2024-02-26T05:09:31;99075.41;;;9.55;100.00
46718;BME280;32448;44.960;-0.698;2024-02-26T05:11:58;99080.72;;;9.43;100.00
46718;BME280;32448;44.960;-0.698;2024-02-26T05:14:26;99071.13;;;9.49;100.00
46718;BME280;32448;44.960;-0.698;2024-02-26T05:16:52;99087.59;;;9.50;100.00
46718;BME280;32448;44.960;-0.698;2024-02-26T05:19:19;99084.13;;;9.51;100.00
46718;BME280;32448;44.960;-0.698;2024-02-26T05:21:46;99076.28;;;9.57;100.00
46718;BME280;32448;44.960;-0.698;2024-02-26T05:24:16;99082.38;;;9.53;100.00
46718;BME280;32448;44.960;-0.698;2024-02-26T05:26:48;99085.00;;;9.53;100.00
46718;BME280;32448;44.960;-0.698;2024-02-26T05:29:15;99086.72;;;9.54;100.00
46718;BME280;32448;44.960;-0.698;2024-02-26T05:31:42;99078.97;;;9.46;100.00
46718;BME280;32448;44.960;-0.698;2024-02-26T05:34:09;99090.22;;;9.52;100.00
46718;BME280;32448;44.960;-0.698;2024-02-26T05:36:36;99069.41;;;9.44;100.00
46718;BME280;32448;44.960;-0.698;2024-02-26T05:39:03;99097.22;;;9.49;100.00
46718;BME280;32448;44.960;-0.698;2024-02-26T05:41:30;99080.72;;;9.43;100.00
46718;BME280;32448;44.960;-0.698;2024-02-26T05:43:58;99090.19;;;9.58;100.00
46718;BME280;32448;44.960;-0.698;2024-02-26T05:46:25;99087.59;;;9.58;100.00
46718;BME280;32448;44.960;-0.698;2024-02-26T05:48:54;99086.75;;;9.51;100.00
46718;BME280;32448;44.960;-0.698;2024-02-26T05:51:21;99091.06;;;9.55;100.00
46718;BME280;32448;44.960;-0.698;2024-02-26T05:53:48;99084.19;;;9.43;100.00
46718;BME280;32448;44.960;-0.698;2024-02-26T05:56:24;99107.59;;;9.56;100.00
46718;BME280;32448;44.960;-0.698;2024-02-26T05:58:51;99098.03;;;9.52;100.00
46718;BME280;32448;44.960;-0.698;2024-02-26T06:01:19;99094.63;;;9.43;100.00
46718;BME280;32448;44.960;-0.698;2024-02-26T06:03:46;99110.19;;;9.53;100.00
46718;BME280;32448;44.960;-0.698;2024-02-26T06:06:13;99105.00;;;9.51;100.00
46718;BME280;32448;44.960;-0.698;2024-02-26T06:08:42;99106.72;;;9.52;100.00
46718;BME280;32448;44.960;-0.698;2024-02-26T06:11:09;99109.34;;;9.54;100.00
46718;BME280;32448;44.960;-0.698;2024-02-26T06:13:36;99118.91;;;9.53;100.00
46718;BME280;32448;44.960;-0.698;2024-02-26T06:16:04;99133.66;;;9.54;100.00
46718;BME280;32448;44.960;-0.698;2024-02-26T06:18:31;99108.53;;;9.41;100.00
46718;BME280;32448;44.960;-0.698;2024-02-26T06:20:58;99128.47;;;9.53;100.00
46718;BME280;32448;44.960;-0.698;2024-02-26T06:23:26;99124.09;;;9.56;100.00
46718;BME280;32448;44.960;-0.698;2024-02-26T06:25:53;99124.97;;;9.54;100.00
46718;BME280;32448;44.960;-0.698;2024-02-26T06:28:20;99105.91;;;9.45;100.00
46718;BME280;32448;44.960;-0.698;2024-02-26T06:30:47;99108.47;;;9.55;100.00
46718;BME280;32448;44.960;-0.698;2024-02-26T06:33:14;99112.81;;;9.51;100.00
46718;BME280;32448;44.960;-0.698;2024-02-26T06:35:41;99118.91;;;9.53;100.00
46718;BME280;32448;44.960;-0.698;2024-02-26T06:38:08;99124.94;;;9.61;100.00
46718;BME280;32448;44.960;-0.698;2024-02-26T06:40:36;99115.41;;;9.56;100.00
46718;BME280;32448;44.960;-0.698;2024-02-26T06:43:03;99128.44;;;9.59;100.00
46718;BME280;32448;44.960;-0.698;2024-02-26T06:45:30;99137.16;;;9.56;100.00
46718;BME280;32448;44.960;-0.698;2024-02-26T06:47:58;99124.97;;;9.54;100.00
46718;BME280;32448;44.960;-0.698;2024-02-26T06:50:25;99119.81;;;9.49;100.00
46718;BME280;32448;44.960;-0.698;2024-02-26T06:52:52;99128.44;;;9.57;100.00
46718;BME280;32448;44.960;-0.698;2024-02-26T06:55:19;99131.06;;;9.51;100.00
46718;BME280;32448;44.960;-0.698;2024-02-26T06:57:46;99134.53;;;9.52;100.00
46718;BME280;32448;44.960;-0.698;2024-02-26T07:00:13;99142.38;;;9.52;100.00
46718;BME280;32448;44.960;-0.698;2024-02-26T07:02:43;99118.88;;;9.56;100.00
46718;BME280;32448;44.960;-0.698;2024-02-26T07:05:11;99127.59;;;9.52;100.00
46718;BME280;32448;44.960;-0.698;2024-02-26T07:07:38;99129.34;;;9.50;100.00
46718;BME280;32448;44.960;-0.698;2024-02-26T07:10:05;99133.66;;;9.54;100.00
46718;BME280;32448;44.960;-0.698;2024-02-26T07:12:33;99146.72;;;9.54;100.00
46718;BME280;32448;44.960;-0.698;2024-02-26T07:15:00;99128.53;;;9.39;100.00
46718;BME280;32448;44.960;-0.698;2024-02-26T07:17:28;99148.41;;;9.64;100.00
46718;BME280;32448;44.960;-0.698;2024-02-26T07:19:55;99146.72;;;9.57;100.00
46718;BME280;32448;44.960;-0.698;2024-02-26T07:22:22;99137.16;;;9.58;100.00
46718;BME280;32448;44.960;-0.698;2024-02-26T07:24:49;99151.06;;;9.58;100.00
46718;BME280;32448;44.960;-0.698;2024-02-26T07:27:16;99149.31;;;9.53;100.00
46718;BME280;32448;44.960;-0.698;2024-02-26T07:29:44;99154.53;;;9.51;100.00
46718;BME280;32448;44.960;-0.698;2024-02-26T07:32:11;99160.63;;;9.55;100.00
46718;BME280;32448;44.960;-0.698;2024-02-26T07:34:38;99157.16;;;9.53;100.00
46718;BME280;32448;44.960;-0.698;2024-02-26T07:37:08;99144.16;;;9.42;100.00
46718;BME280;32448;44.960;-0.698;2024-02-26T07:39:35;99169.31;;;9.50;100.00
46718;BME280;32448;44.960;-0.698;2024-02-26T07:42:03;99176.25;;;9.59;100.00
46718;BME280;32448;44.960;-0.698;2024-02-26T07:44:31;99184.91;;;9.64;100.00
46718;BME280;32448;44.960;-0.698;2024-02-26T07:46:58;99181.47;;;9.61;100.00
46718;BME280;32448;44.960;-0.698;2024-02-26T07:49:25;99176.22;;;9.62;100.00
46718;BME280;32448;44.960;-0.698;2024-02-26T07:51:52;99179.69;;;9.64;100.00
46718;BME280;32448;44.960;-0.698;2024-02-26T07:54:19;99188.38;;;9.66;100.00
46718;BME280;32448;44.960;-0.698;2024-02-26T07:56:46;99193.63;;;9.62;100.00
46718;BME280;32448;44.960;-0.698;2024-02-26T07:59:13;99165.94;;;9.32;100.00
46718;BME280;32448;44.960;-0.698;2024-02-26T08:01:40;99188.47;;;9.49;100.00
46718;BME280;32448;44.960;-0.698;2024-02-26T08:04:08;99211.88;;;9.62;100.00
46718;BME280;32448;44.960;-0.698;2024-02-26T08:06:36;99202.31;;;9.64;100.00
46718;BME280;32448;44.960;-0.698;2024-02-26T08:09:04;99204.91;;;9.65;100.00
46718;BME280;32448;44.960;-0.698;2024-02-26T08:11:31;99202.34;;;9.59;100.00
46718;BME280;32448;44.960;-0.698;2024-02-26T08:13:58;99210.13;;;9.65;100.00
46718;BME280;32448;44.960;-0.698;2024-02-26T08:16:26;99213.63;;;9.61;100.00
46718;BME280;32448;44.960;-0.698;2024-02-26T08:18:53;99214.53;;;9.60;100.00
46718;BME280;32448;44.960;-0.698;2024-02-26T08:21:21;99211.09;;;9.49;100.00
46718;BME280;32448;44.960;-0.698;2024-02-26T08:23:48;99218.00;;;9.50;100.00
46718;BME280;32448;44.960;-0.698;2024-02-26T08:26:15;99217.13;;;9.53;100.00
46718;BME280;32448;44.960;-0.698;2024-02-26T08:28:42;99213.66;;;9.55;100.00
46718;BME280;32448;44.960;-0.698;2024-02-26T08:31:10;99223.22;;;9.58;100.00
46718;BME280;32448;44.960;-0.698;2024-02-26T08:33:36;99230.13;;;9.62;100.00
46718;BME280;32448;44.960;-0.698;2024-02-26T08:36:05;99233.66;;;9.59;100.00
46718;BME280;32448;44.960;-0.698;2024-02-26T08:38:32;99238.00;;;9.60;100.00
46718;BME280;32448;44.960;-0.698;2024-02-26T08:41:02;99237.09;;;9.61;100.00
46718;BME280;32448;44.960;-0.698;2024-02-26T08:43:32;99232.78;;;9.51;100.00
46718;BME280;32448;44.960;-0.698;2024-02-26T08:45:58;99254.53;;;9.58;100.00
46718;BME280;32448;44.960;-0.698;2024-02-26T08:48:25;99256.25;;;9.57;100.00
46718;BME280;32448;44.960;-0.698;2024-02-26T08:50:53;99266.69;;;9.56;100.00
46718;BME280;32448;44.960;-0.698;2024-02-26T08:53:20;99267.56;;;9.56;100.00
46718;BME280;32448;44.960;-0.698;2024-02-26T08:55:57;99275.38;;;9.52;100.00
46718;BME280;32448;44.960;-0.698;2024-02-26T08:58:24;99276.25;;;9.50;100.00
46718;BME280;32448;44.960;-0.698;2024-02-26T09:00:51;99278.03;;;9.44;100.00
46718;BME280;32448;44.960;-0.698;2024-02-26T09:03:18;99278.03;;;9.45;100.00
46718;BME280;32448;44.960;-0.698;2024-02-26T09:05:45;99281.50;;;9.47;100.00
46718;BME280;32448;44.960;-0.698;2024-02-26T09:08:12;99288.44;;;9.56;100.00
46718;BME280;32448;44.960;-0.698;2024-02-26T09:10:39;99297.13;;;9.57;100.00
46718;BME280;32448;44.960;-0.698;2024-02-26T09:13:06;99295.34;;;9.71;100.00
46718;BME280;32448;44.960;-0.698;2024-02-26T09:15:33;99281.44;;;9.70;100.00
46718;BME280;32448;44.960;-0.698;2024-02-26T09:18:00;99303.97;;;9.93;100.00
46718;BME280;32448;44.960;-0.698;2024-02-26T09:20:27;99317.78;;;10.07;100.00
46718;BME280;32448;44.960;-0.698;2024-02-26T09:22:54;99318.66;;;10.15;100.00
46718;BME280;32448;44.960;-0.698;2024-02-26T09:25:21;99319.50;;;10.26;100.00
46718;BME280;32448;44.960;-0.698;2024-02-26T09:27:48;99296.03;;;10.14;100.00
46718;BME280;32448;44.960;-0.698;2024-02-26T09:30:15;99314.28;;;10.25;100.00
46718;BME280;32448;44.960;-0.698;2024-02-26T09:32:46;99326.44;;;10.30;100.00
46718;BME280;32448;44.960;-0.698;2024-02-26T09:35:14;99311.69;;;10.18;100.00
46718;BME280;32448;44.960;-0.698;2024-02-26T09:37:41;99321.25;;;10.19;100.00
46718;BME280;32448;44.960;-0.698;2024-02-26T09:40:10;99331.69;;;10.26;100.00
46718;BME280;32448;44.960;-0.698;2024-02-26T09:42:44;99341.22;;;10.33;100.00
46718;BME280;32448;44.960;-0.698;2024-02-26T09:45:21;99339.47;;;10.33;100.00
46718;BME280;32448;44.960;-0.698;2024-02-26T09:47:49;99338.59;;;10.31;100.00
46718;BME280;32448;44.960;-0.698;2024-02-26T09:50:17;99346.41;;;10.39;100.00
46718;BME280;32448;44.960;-0.698;2024-02-26T09:52:44;99339.47;;;10.38;100.00
46718;BME280;32448;44.960;-0.698;2024-02-26T09:55:12;99349.00;;;10.45;100.00
46718;BME280;32448;44.960;-0.698;2024-02-26T09:57:44;99359.38;;;10.55;100.00
46718;BME280;32448;44.960;-0.698;2024-02-26T10:00:19;99348.00;;;10.66;100.00
46718;BME280;32448;44.960;-0.698;2024-02-26T10:02:48;99340.09;;;10.75;100.00
46718;BME280;32448;44.960;-0.698;2024-02-26T10:05:18;99362.69;;;10.83;100.00
46718;BME280;32448;44.960;-0.698;2024-02-26T10:07:46;99354.88;;;10.80;100.00
46718;BME280;32448;44.960;-0.698;2024-02-26T10:10:14;99358.38;;;10.76;100.00
46718;BME280;32448;44.960;-0.698;2024-02-26T10:12:41;99370.56;;;10.79;100.00
46718;BME280;32448;44.960;-0.698;2024-02-26T10:15:09;99367.03;;;10.86;100.00
46718;BME280;32448;44.960;-0.698;2024-02-26T10:17:36;99364.38;;;10.92;100.00
46718;BME280;32448;44.960;-0.698;2024-02-26T10:20:18;99346.13;;;10.83;100.00
46718;BME280;32448;44.960;-0.698;2024-02-26T10:22:45;99377.38;;;11.04;100.00
46718;BME280;32448;44.960;-0.698;2024-02-26T10:25:13;99374.63;;;11.18;100.00
46718;BME280;32448;44.960;-0.698;2024-02-26T10:27:41;99376.31;;;11.25;100.00
46718;BME280;32448;44.960;-0.698;2024-02-26T10:30:22;99391.09;;;11.27;100.00
46718;BME280;32448;44.960;-0.698;2024-02-26T10:32:50;99385.00;;;11.30;100.00
46718;BME280;32448;44.960;-0.698;2024-02-26T10:35:18;99383.22;;;11.34;100.00
46718;BME280;32448;44.960;-0.698;2024-02-26T10:37:51;99391.94;;;11.32;100.00
46718;BME280;32448;44.960;-0.698;2024-02-26T10:40:19;99394.56;;;11.34;100.00
46718;BME280;32448;44.960;-0.698;2024-02-26T10:42:46;99398.06;;;11.33;100.00
46718;BME280;32448;44.960;-0.698;2024-02-26T10:45:13;99402.47;;;11.26;100.00
46718;BME280;32448;44.960;-0.698;2024-02-26T10:47:40;99399.88;;;11.23;100.00
46718;BME280;32448;44.960;-0.698;2024-02-26T10:50:09;99412.09;;;11.21;100.00
46718;BME280;32448;44.960;-0.698;2024-02-26T10:52:36;99409.47;;;11.20;100.00
46718;BME280;32448;44.960;-0.698;2024-02-26T10:55:05;99408.63;;;11.16;100.00
46718;BME280;32448;44.960;-0.698;2024-02-26T10:57:40;99424.28;;;11.22;100.00
46718;BME280;32448;44.960;-0.698;2024-02-26T11:00:08;99432.94;;;11.29;100.00
46718;BME280;32448;44.960;-0.698;2024-02-26T11:02:40;99412.94;;;11.26;100.00
46718;BME280;32448;44.960;-0.698;2024-02-26T11:05:08;99425.84;;;11.48;100.00
46718;BME280;32448;44.960;-0.698;2024-02-26T11:07:35;99426.66;;;11.51;100.00
46718;BME280;32448;44.960;-0.698;2024-02-26T11:10:04;99425.78;;;11.54;100.00
46718;BME280;32448;44.960;-0.698;2024-02-26T11:12:33;99424.78;;;11.67;100.00
46718;BME280;32448;44.960;-0.698;2024-02-26T11:15:04;99424.72;;;11.78;100.00
46718;BME280;32448;44.960;-0.698;2024-02-26T11:17:32;99410.78;;;11.71;100.00
46718;BME280;32448;44.960;-0.698;2024-02-26T11:20:01;99409.00;;;11.81;100.00
46718;BME280;32448;44.960;-0.698;2024-02-26T11:22:29;99406.28;;;11.91;100.00
46718;BME280;32448;44.960;-0.698;2024-02-26T11:24:57;99401.84;;;11.93;100.00
46718;BME280;32448;44.960;-0.698;2024-02-26T11:27:29;99411.25;;;12.14;100.00
46718;BME280;32448;44.960;-0.698;2024-02-26T11:29:58;99416.25;;;12.35;100.00
46718;BME280;32448;44.960;-0.698;2024-02-26T11:32:27;99393.59;;;12.28;100.00
46718;BME280;32448;44.960;-0.698;2024-02-26T11:34:58;99397.94;;;12.32;100.00
46718;BME280;32448;44.960;-0.698;2024-02-26T11:37:25;99388.69;;;12.02;100.00
46718;BME280;32448;44.960;-0.698;2024-02-26T11:39:53;99398.25;;;12.05;100.00
46718;BME280;32448;44.960;-0.698;2024-02-26T11:42:23;99404.44;;;11.98;100.00
46718;BME280;32448;44.960;-0.698;2024-02-26T11:44:55;99403.56;;;12.00;100.00
46718;BME280;32448;44.960;-0.698;2024-02-26T11:47:28;99398.44;;;11.90;100.00
46718;BME280;32448;44.960;-0.698;2024-02-26T11:49:55;99432.47;;;11.90;100.00
46718;BME280;32448;44.960;-0.698;2024-02-26T11:52:22;99433.28;;;11.93;100.00
46718;BME280;32448;44.960;-0.698;2024-02-26T11:54:50;99442.97;;;11.85;100.00
46718;BME280;32448;44.960;-0.698;2024-02-26T12:00:16;99436.91;;;11.82;100.00
46718;BME280;32448;44.960;-0.698;2024-02-26T12:02:50;99436.88;;;11.83;100.00
46718;BME280;32448;44.960;-0.698;2024-02-26T12:05:33;99446.47;;;11.84;100.00
46718;BME280;32448;44.960;-0.698;2024-02-26T12:08:03;99401.34;;;11.56;100.00
46718;BME280;32448;44.960;-0.698;2024-02-26T12:15:40;99437.72;;;11.85;100.00
46718;BME280;32448;44.960;-0.698;2024-02-26T12:18:10;99429.03;;;11.83;100.00
46718;BME280;32448;44.960;-0.698;2024-02-26T12:20:42;99412.41;;;11.89;100.00
46718;BME280;32448;44.960;-0.698;2024-02-26T12:23:15;99422.88;;;11.89;100.00
46718;BME280;32448;44.960;-0.698;2024-02-26T12:25:44;99436.03;;;11.81;100.00
46718;BME280;32448;44.960;-0.698;2024-02-26T12:28:11;99437.75;;;11.82;100.00
46718;BME280;32448;44.960;-0.698;2024-02-26T12:30:38;99425.38;;;11.98;100.00
46718;BME280;32448;44.960;-0.698;2024-02-26T12:33:05;99429.59;;;12.13;100.00
46718;BME280;32448;44.960;-0.698;2024-02-26T12:35:34;99429.50;;;12.20;100.00
46718;BME280;32448;44.960;-0.698;2024-02-26T12:38:01;99441.84;;;12.09;100.00
46718;BME280;32448;44.960;-0.698;2024-02-26T12:40:31;99452.31;;;12.11;100.00
46718;BME280;32448;44.960;-0.698;2024-02-26T12:42:58;99443.72;;;11.96;100.00
46718;BME280;32448;44.960;-0.698;2024-02-26T12:45:26;99447.50;;;11.63;100.00
46718;BME280;32448;44.960;-0.698;2024-02-26T12:47:55;99459.03;;;11.40;100.00
46718;BME280;32448;44.960;-0.698;2024-02-26T12:50:23;99472.00;;;11.53;100.00
46718;BME280;32448;44.960;-0.698;2024-02-26T12:52:51;99470.56;;;11.13;100.00
46718;BME280;32448;44.960;-0.698;2024-02-26T12:55:19;99464.53;;;11.02;100.00